Track Медянцева Дарья

Time Latitude Longitude Accuracy (66% radius in meters) Altitude (meters) Speed (km/hour) Bearing (degrees) Battery (%) GPS flag
07:21:50 54.460898 53.534505 0 0 0 0 1 delete
07:21:48 54.460876 53.534456 0 0 0 0 1 delete
07:21:46 54.460842 53.534421 0 0 0 0 1 delete
07:21:44 54.460810 53.534374 0 0 0 0 1 delete
07:21:38 54.460778 53.534378 0 0 0 0 1 delete
07:21:36 54.460805 53.534369 0 0 0 0 1 delete
07:21:30 54.460834 53.534396 0 0 0 0 1 delete
07:21:29 54.460808 53.534414 0 0 0 0 1 delete
07:21:27 54.460775 53.534489 0 0 0 0 1 delete
07:21:26 54.460731 53.534435 0 0 0 0 1 delete
07:21:24 54.460833 53.534360 0 0 0 0 1 delete
07:21:22 54.460824 53.534306 0 0 0 0 1 delete
07:21:20 54.460814 53.534238 0 0 0 0 1 delete
07:21:15 54.460747 53.533871 0 0 0 0 1 delete
07:21:13 54.460713 53.533840 0 0 0 0 1 delete
07:21:12 54.460674 53.533789 0 0 0 0 1 delete
07:21:10 54.460633 53.534048 0 0 0 0 1 delete
07:21:08 54.460591 53.534307 0 0 0 0 1 delete
07:20:38 54.460550 53.534566 0 0 0 0 1 delete
07:20:32 54.460513 53.534764 0 0 0 0 1 delete
07:20:30 54.460557 53.534756 0 0 0 0 1 delete
07:20:28 54.460571 53.534700 0 0 0 0 1 delete
07:20:26 54.460584 53.534637 0 0 0 0 1 delete
07:20:24 54.460586 53.534566 0 0 0 0 1 delete
07:20:22 54.460621 53.534514 0 0 0 0 1 delete
07:20:21 54.460640 53.534476 0 0 0 0 1 delete
07:20:20 54.460674 53.534462 0 0 0 0 1 delete
07:20:18 54.460730 53.534433 0 0 0 0 1 delete
07:20:16 54.460745 53.534393 0 0 0 0 1 delete
07:20:12 54.460768 53.534321 0 0 0 0 1 delete
07:20:09 54.460768 53.534263 0 0 0 0 1 delete
07:20:06 54.460778 53.534212 0 0 0 0 1 delete
07:19:54 54.460822 53.534290 0 0 0 0 1 delete
07:19:34 54.461101 53.534546 0 0 0 0 1 delete
07:19:31 54.461071 53.534514 0 0 0 0 1 delete
07:19:24 54.461052 53.534474 0 0 0 0 1 delete
07:19:21 54.461045 53.534522 0 0 0 0 1 delete
07:19:19 54.461010 53.534548 0 0 0 0 1 delete
07:19:18 54.460983 53.534569 0 0 0 0 1 delete
07:19:16 54.461277 53.534986 0 0 0 0 1 delete
07:19:14 54.461205 53.534931 0 0 0 0 1 delete
07:19:13 54.461176 53.534899 0 0 0 0 1 delete
07:19:12 54.461147 53.534866 0 0 0 0 1 delete
07:19:11 54.461116 53.534832 0 0 0 0 1 delete
07:19:10 54.461084 53.534798 0 0 0 0 1 delete
07:19:09 54.461050 53.534763 0 0 0 0 1 delete
07:19:08 54.461017 53.534731 0 0 0 0 1 delete
07:19:06 54.460968 53.534689 0 0 0 0 1 delete
07:19:05 54.460944 53.534664 0 0 0 0 1 delete
07:19:04 54.460918 53.534642 0 0 0 0 1 delete